createdAt,value
2022-12-01T00:01:15.027Z,16.13
2022-12-01T00:07:16.547Z,16.65
2022-12-01T00:13:18.069Z,15.47
2022-12-01T00:19:19.819Z,16.17
2022-12-01T00:25:21.611Z,17.08
2022-12-01T00:31:23.603Z,16.40
2022-12-01T00:37:25.249Z,17.42
2022-12-01T00:43:26.866Z,16.63
2022-12-01T00:49:28.386Z,18.85
2022-12-01T00:55:29.895Z,20.10
2022-12-01T01:01:31.514Z,19.03
2022-12-01T01:07:33.123Z,19.45
2022-12-01T01:13:35.720Z,20.10
2022-12-01T01:19:37.203Z,21.33
2022-12-01T01:25:38.701Z,18.27
2022-12-01T01:31:40.278Z,18.27
2022-12-01T01:37:41.863Z,19.48
2022-12-01T01:44:00.590Z,16.83
2022-12-01T01:50:06.423Z,19.73
2022-12-01T01:56:08.579Z,16.75
2022-12-01T02:02:11.148Z,16.10
2022-12-01T02:08:12.790Z,17.45
2022-12-01T02:14:17.308Z,15.40
2022-12-01T02:20:37.372Z,15.00
2022-12-01T02:26:44.214Z,14.82
2022-12-01T02:33:01.098Z,15.83
2022-12-01T02:39:11.574Z,16.55
2022-12-01T02:45:16.496Z,15.47
2022-12-01T02:51:24.048Z,16.40
2022-12-01T02:57:25.711Z,17.35
2022-12-01T03:03:38.945Z,17.07
2022-12-01T03:09:49.874Z,17.85
2022-12-01T03:15:56.502Z,17.07
2022-12-01T03:22:08.621Z,16.63
2022-12-01T03:28:27.643Z,13.45
2022-12-01T03:34:36.757Z,13.40
2022-12-01T03:40:39.238Z,13.07
2022-12-01T03:46:52.787Z,14.30
2022-12-01T03:53:00.366Z,13.52
2022-12-01T03:59:02.794Z,13.65
2022-12-01T04:05:05.366Z,13.77
2022-12-01T04:11:32.191Z,14.07
2022-12-01T04:17:34.207Z,13.03
2022-12-01T04:23:54.547Z,14.05
2022-12-01T04:29:56.220Z,14.90
2022-12-01T04:35:58.328Z,14.30
2022-12-01T04:42:00.095Z,12.93
2022-12-01T04:48:01.663Z,13.53
2022-12-01T04:54:03.276Z,13.27
2022-12-01T05:00:12.913Z,11.57
2022-12-01T05:06:15.648Z,12.37
2022-12-01T05:12:17.246Z,11.95
2022-12-01T05:18:19.215Z,11.53
2022-12-01T05:24:21.351Z,12.88
2022-12-01T05:30:28.241Z,12.27
2022-12-01T05:36:30.171Z,12.27
2022-12-01T05:42:31.690Z,11.15
2022-12-01T05:48:33.249Z,12.40
2022-12-01T05:54:34.837Z,11.70
2022-12-01T06:00:40.874Z,11.25
2022-12-01T06:06:46.830Z,11.13
2022-12-01T06:12:48.686Z,11.63
2022-12-01T06:18:50.226Z,12.00
2022-12-01T06:24:51.763Z,11.32
2022-12-01T06:30:57.840Z,11.38
2022-12-01T06:37:02.866Z,12.03
2022-12-01T06:43:04.597Z,12.13
2022-12-01T06:49:06.159Z,12.87
2022-12-01T06:55:07.858Z,13.15
2022-12-01T07:01:10.851Z,13.50
2022-12-01T07:07:12.696Z,12.77
2022-12-01T07:13:14.200Z,13.00
2022-12-01T07:19:16.208Z,13.00
2022-12-01T07:25:17.751Z,12.73
2022-12-01T07:31:19.583Z,13.63
2022-12-01T07:37:21.151Z,10.93
2022-12-01T07:43:22.661Z,13.15
2022-12-01T07:49:24.161Z,12.90
2022-12-01T07:55:25.669Z,13.65
2022-12-01T08:01:27.344Z,12.63
2022-12-01T08:07:30.068Z,12.97
2022-12-01T08:13:32.074Z,12.75
2022-12-01T08:19:33.591Z,13.10
2022-12-01T08:25:35.178Z,12.43
2022-12-01T08:31:38.019Z,13.67
2022-12-01T08:37:39.674Z,12.50
2022-12-01T08:44:00.127Z,12.05
2022-12-01T08:50:04.864Z,13.33
2022-12-01T08:56:11.967Z,12.82
2022-12-01T09:02:15.017Z,13.98
2022-12-01T09:08:31.539Z,12.60
2022-12-01T09:14:36.392Z,12.02
2022-12-01T09:20:37.908Z,13.67
2022-12-01T09:26:39.432Z,11.10
2022-12-01T09:32:40.931Z,12.55
2022-12-01T09:38:42.433Z,13.17
2022-12-01T09:44:47.749Z,12.43
2022-12-01T09:50:49.278Z,13.17
2022-12-01T09:56:53.004Z,13.52
2022-12-01T10:03:15.673Z,14.38
2022-12-01T10:09:35.944Z,13.63
2022-12-01T10:15:43.888Z,13.13
2022-12-01T10:21:58.273Z,13.07
2022-12-01T10:28:02.760Z,13.65
2022-12-01T10:34:30.572Z,12.80
2022-12-01T10:40:35.127Z,14.57
2022-12-01T10:46:43.375Z,13.95
2022-12-01T10:52:48.422Z,13.87
2022-12-01T10:58:54.325Z,13.50
2022-12-01T11:04:58.081Z,13.60
2022-12-01T11:10:59.618Z,14.60
2022-12-01T11:17:14.943Z,13.32
2022-12-01T11:23:24.242Z,14.80
2022-12-01T11:29:28.482Z,15.35
2022-12-01T11:35:32.029Z,14.35
2022-12-01T11:41:37.999Z,14.37
2022-12-01T11:47:57.603Z,15.27
2022-12-01T11:54:07.293Z,14.70
2022-12-01T12:00:12.564Z,15.38
2022-12-01T12:06:39.929Z,14.95
2022-12-01T12:12:41.940Z,16.47
2022-12-01T12:18:49.577Z,15.48
2022-12-01T12:24:51.149Z,17.30
2022-12-01T12:31:07.238Z,16.92
2022-12-01T12:37:18.907Z,16.98
2022-12-01T12:43:33.208Z,18.30
2022-12-01T12:49:34.742Z,17.33
2022-12-01T12:55:39.000Z,16.93
2022-12-01T13:01:46.406Z,17.95
2022-12-01T13:07:57.958Z,17.15
2022-12-01T13:14:02.414Z,18.30
2022-12-01T13:20:07.188Z,18.60
2022-12-01T13:26:09.987Z,16.83
2022-12-01T13:32:30.384Z,17.52
2022-12-01T13:38:33.576Z,15.45
2022-12-01T13:44:38.645Z,16.63
2022-12-01T13:50:54.455Z,16.25
2022-12-01T13:57:01.582Z,15.50
2022-12-01T14:03:12.363Z,17.42
2022-12-01T14:09:18.782Z,16.38
2022-12-01T14:15:23.088Z,14.53
2022-12-01T14:21:41.583Z,15.70
2022-12-01T14:27:43.577Z,16.13
2022-12-01T14:33:48.622Z,16.33
2022-12-01T14:39:56.281Z,16.75
2022-12-01T14:46:04.546Z,16.33
2022-12-01T14:52:07.356Z,17.90
2022-12-01T14:58:15.060Z,18.10
2022-12-01T15:04:16.589Z,17.45
2022-12-01T15:10:22.795Z,18.20
2022-12-01T15:16:25.639Z,18.10
2022-12-01T15:22:29.601Z,17.45
2022-12-01T15:28:32.435Z,15.63
2022-12-01T15:34:40.001Z,16.92
2022-12-01T15:41:13.361Z,15.50
2022-12-01T15:47:22.832Z,15.97
2022-12-01T15:53:27.754Z,14.85
2022-12-01T15:59:37.516Z,15.47
2022-12-01T16:05:43.940Z,15.65
2022-12-01T16:12:04.767Z,15.55
2022-12-01T16:18:24.224Z,16.67
2022-12-01T16:24:36.227Z,15.18
2022-12-01T16:30:39.286Z,14.40
2022-12-01T16:36:40.940Z,13.65
2022-12-01T16:42:42.813Z,16.45
2022-12-01T16:48:44.328Z,15.77
2022-12-01T16:54:48.195Z,16.13
2022-12-01T17:00:52.748Z,16.87
2022-12-01T17:06:54.394Z,15.18
2022-12-01T17:12:55.940Z,15.02
2022-12-01T17:18:57.651Z,15.93
2022-12-01T17:24:59.693Z,15.70
2022-12-01T17:31:01.925Z,16.90
2022-12-01T17:37:04.453Z,16.98
2022-12-01T17:43:07.016Z,16.63
2022-12-01T17:49:10.537Z,16.37
2022-12-01T17:55:12.052Z,16.05
2022-12-01T18:01:18.043Z,16.23
2022-12-01T18:07:19.791Z,15.27
2022-12-01T18:13:21.786Z,16.70
2022-12-01T18:19:23.377Z,15.00
2022-12-01T18:25:25.029Z,17.30
2022-12-01T18:31:27.671Z,17.27
2022-12-01T18:37:29.264Z,17.85
2022-12-01T18:43:31.307Z,17.95
2022-12-01T18:49:32.889Z,18.83
2022-12-01T18:55:37.582Z,19.60
2022-12-01T19:01:44.167Z,20.10
2022-12-01T19:07:46.152Z,18.65
2022-12-01T19:13:48.213Z,18.25
2022-12-01T19:19:49.786Z,18.03
2022-12-01T19:25:52.849Z,19.00
2022-12-01T19:31:54.881Z,18.90
2022-12-01T19:37:56.473Z,18.08
2022-12-01T19:43:58.030Z,18.90
2022-12-01T19:49:59.624Z,18.33
2022-12-01T19:56:02.239Z,17.73
2022-12-01T20:02:03.938Z,17.87
2022-12-01T20:08:05.782Z,18.65
2022-12-01T20:14:09.199Z,18.73
2022-12-01T20:20:12.374Z,18.43
2022-12-01T20:26:15.075Z,18.20
2022-12-01T20:32:21.983Z,18.37
2022-12-01T20:38:27.741Z,19.10
2022-12-01T20:44:29.753Z,18.23
2022-12-01T20:50:31.374Z,18.73
2022-12-01T20:56:33.256Z,19.20
2022-12-01T21:02:34.995Z,16.20
2022-12-01T21:08:41.008Z,17.23
2022-12-01T21:14:59.628Z,16.83
2022-12-01T21:21:07.876Z,18.97
2022-12-01T21:27:13.942Z,17.30
2022-12-01T21:33:26.097Z,19.30
2022-12-01T21:39:29.112Z,16.08
2022-12-01T21:45:31.940Z,18.30
2022-12-01T21:51:33.477Z,17.50
2022-12-01T21:57:43.341Z,18.33
2022-12-01T22:03:45.754Z,19.30
2022-12-01T22:09:47.729Z,18.45
2022-12-01T22:15:49.281Z,18.63
2022-12-01T22:22:22.130Z,16.53
2022-12-01T22:28:24.488Z,16.80
2022-12-01T22:34:25.968Z,17.13
2022-12-01T22:40:42.227Z,16.60
2022-12-01T22:46:43.800Z,16.80
2022-12-01T22:52:45.378Z,17.50
2022-12-01T22:58:46.977Z,16.95
2022-12-01T23:04:50.016Z,16.30
2022-12-01T23:10:52.022Z,16.48
2022-12-01T23:17:00.441Z,16.85
2022-12-01T23:23:03.851Z,17.33
2022-12-01T23:29:05.397Z,15.20
2022-12-01T23:35:10.295Z,16.23
2022-12-01T23:41:30.383Z,16.00
2022-12-01T23:47:31.926Z,16.27
2022-12-01T23:53:33.615Z,15.87
2022-12-01T23:59:37.075Z,16.67
